sensor_id;sensor_type;location;lat;lon;timestamp;pressure;altitude;pressure_sealevel;temperature;humidity
9969;BME280;5025;48.890;9.278;2023-03-13T00:01:01;98330.06;;;8.89;66.50
9969;BME280;5025;48.890;9.278;2023-03-13T00:03:27;98334.06;;;8.86;66.63
9969;BME280;5025;48.890;9.278;2023-03-13T00:05:57;98329.13;;;8.83;66.68
9969;BME280;5025;48.890;9.278;2023-03-13T00:08:24;98329.81;;;8.78;66.85
9969;BME280;5025;48.890;9.278;2023-03-13T00:10:49;98324.91;;;8.75;66.74
9969;BME280;5025;48.890;9.278;2023-03-13T00:13:14;98326.97;;;8.73;66.99
9969;BME280;5025;48.890;9.278;2023-03-13T00:15:40;98328.28;;;8.71;67.00
9969;BME280;5025;48.890;9.278;2023-03-13T00:18:05;98318.53;;;8.70;67.11
9969;BME280;5025;48.890;9.278;2023-03-13T00:20:30;98320.66;;;8.68;67.11
9969;BME280;5025;48.890;9.278;2023-03-13T00:22:56;98315.50;;;8.66;67.16
9969;BME280;5025;48.890;9.278;2023-03-13T00:25:21;98319.22;;;8.65;67.17
9969;BME280;5025;48.890;9.278;2023-03-13T00:27:46;98316.75;;;8.64;67.45
9969;BME280;5025;48.890;9.278;2023-03-13T00:30:12;98318.47;;;8.58;67.58
9969;BME280;5025;48.890;9.278;2023-03-13T00:32:41;98313.78;;;8.53;67.55
9969;BME280;5025;48.890;9.278;2023-03-13T00:35:07;98310.50;;;8.51;67.97
9969;BME280;5025;48.890;9.278;2023-03-13T00:37:32;98303.25;;;8.52;68.08
9969;BME280;5025;48.890;9.278;2023-03-13T00:39:58;98303.25;;;8.52;68.16
9969;BME280;5025;48.890;9.278;2023-03-13T00:42:23;98299.50;;;8.53;68.20
9969;BME280;5025;48.890;9.278;2023-03-13T00:44:48;98296.81;;;8.53;68.22
9969;BME280;5025;48.890;9.278;2023-03-13T00:47:13;98292.47;;;8.52;68.44
9969;BME280;5025;48.890;9.278;2023-03-13T00:49:39;98295.41;;;8.50;68.54
9969;BME280;5025;48.890;9.278;2023-03-13T00:52:04;98284.84;;;8.49;68.43
9969;BME280;5025;48.890;9.278;2023-03-13T00:54:30;98282.16;;;8.49;68.77
9969;BME280;5025;48.890;9.278;2023-03-13T00:56:55;98272.25;;;8.49;68.78
9969;BME280;5025;48.890;9.278;2023-03-13T00:59:20;98276.09;;;8.53;69.05
9969;BME280;5025;48.890;9.278;2023-03-13T01:01:45;98273.78;;;8.57;69.29
9969;BME280;5025;48.890;9.278;2023-03-13T01:04:12;98271.91;;;8.57;69.16
9969;BME280;5025;48.890;9.278;2023-03-13T01:06:39;98276.84;;;8.60;69.19
9969;BME280;5025;48.890;9.278;2023-03-13T01:09:08;98259.88;;;8.60;69.27
9969;BME280;5025;48.890;9.278;2023-03-13T01:11:36;98262.56;;;8.60;69.32
9969;BME280;5025;48.890;9.278;2023-03-13T01:14:05;98260.94;;;8.59;69.26
9969;BME280;5025;48.890;9.278;2023-03-13T01:16:32;98247.25;;;8.60;69.49
9969;BME280;5025;48.890;9.278;2023-03-13T01:19:00;98236.94;;;8.57;69.63
9969;BME280;5025;48.890;9.278;2023-03-13T01:21:26;98242.66;;;8.61;69.59
9969;BME280;5025;48.890;9.278;2023-03-13T01:23:52;98227.59;;;8.60;69.53
9969;BME280;5025;48.890;9.278;2023-03-13T01:26:19;98233.44;;;8.57;69.81
9969;BME280;5025;48.890;9.278;2023-03-13T01:28:45;98230.50;;;8.58;69.74
9969;BME280;5025;48.890;9.278;2023-03-13T01:31:13;98225.81;;;8.54;69.70
9969;BME280;5025;48.890;9.278;2023-03-13T01:33:38;98216.66;;;8.55;70.04
9969;BME280;5025;48.890;9.278;2023-03-13T01:36:04;98214.59;;;8.57;70.10
9969;BME280;5025;48.890;9.278;2023-03-13T01:38:29;98211.91;;;8.57;69.93
9969;BME280;5025;48.890;9.278;2023-03-13T01:40:55;98207.91;;;8.59;69.95
9969;BME280;5025;48.890;9.278;2023-03-13T01:43:26;98206.88;;;8.60;69.93
9969;BME280;5025;48.890;9.278;2023-03-13T01:46:11;98200.44;;;8.61;70.13
9969;BME280;5025;48.890;9.278;2023-03-13T01:51:57;98191.44;;;8.68;69.94
9969;BME280;5025;48.890;9.278;2023-03-13T01:54:24;98183.00;;;8.64;69.83
9969;BME280;5025;48.890;9.278;2023-03-13T01:56:57;98181.94;;;8.65;69.96
9969;BME280;5025;48.890;9.278;2023-03-13T01:59:28;98177.59;;;8.64;69.94
9969;BME280;5025;48.890;9.278;2023-03-13T02:01:58;98177.03;;;8.62;70.13
9969;BME280;5025;48.890;9.278;2023-03-13T02:04:26;98176.44;;;8.60;70.09
9969;BME280;5025;48.890;9.278;2023-03-13T02:06:57;98167.91;;;8.63;69.85
9969;BME280;5025;48.890;9.278;2023-03-13T02:09:28;98166.25;;;8.62;70.07
9969;BME280;5025;48.890;9.278;2023-03-13T02:12:13;98147.44;;;8.62;70.08
9969;BME280;5025;48.890;9.278;2023-03-13T02:14:43;98145.69;;;8.68;69.86
9969;BME280;5025;48.890;9.278;2023-03-13T02:17:09;98148.50;;;8.73;69.92
9969;BME280;5025;48.890;9.278;2023-03-13T02:19:47;98140.19;;;8.74;69.74
9969;BME280;5025;48.890;9.278;2023-03-13T02:27:34;98138.78;;;8.84;69.69
9969;BME280;5025;48.890;9.278;2023-03-13T02:30:00;98140.44;;;8.85;69.81
9969;BME280;5025;48.890;9.278;2023-03-13T02:32:26;98139.75;;;8.89;69.42
9969;BME280;5025;48.890;9.278;2023-03-13T02:34:56;98141.13;;;8.92;69.45
9969;BME280;5025;48.890;9.278;2023-03-13T02:37:24;98136.34;;;8.94;69.40
9969;BME280;5025;48.890;9.278;2023-03-13T02:39:51;98135.03;;;8.96;69.37
9969;BME280;5025;48.890;9.278;2023-03-13T02:42:18;98119.47;;;8.99;69.22
9969;BME280;5025;48.890;9.278;2023-03-13T02:44:46;98108.47;;;9.00;69.05
9969;BME280;5025;48.890;9.278;2023-03-13T02:47:16;98103.19;;;9.05;69.15
9969;BME280;5025;48.890;9.278;2023-03-13T02:49:42;98093.38;;;9.11;68.88
9969;BME280;5025;48.890;9.278;2023-03-13T02:52:20;98094.28;;;9.17;68.50
9969;BME280;5025;48.890;9.278;2023-03-13T02:54:50;98091.09;;;9.20;68.38
9969;BME280;5025;48.890;9.278;2023-03-13T02:57:17;98093.09;;;9.24;68.12
9969;BME280;5025;48.890;9.278;2023-03-13T02:59:42;98080.44;;;9.25;67.96
9969;BME280;5025;48.890;9.278;2023-03-13T03:02:07;98080.31;;;9.31;67.74
9969;BME280;5025;48.890;9.278;2023-03-13T03:04:33;98068.22;;;9.34;67.46
9969;BME280;5025;48.890;9.278;2023-03-13T03:06:58;98064.00;;;9.38;67.48
9969;BME280;5025;48.890;9.278;2023-03-13T03:09:23;98060.84;;;9.41;67.56
9969;BME280;5025;48.890;9.278;2023-03-13T03:11:49;98056.25;;;9.42;67.49
9969;BME280;5025;48.890;9.278;2023-03-13T03:14:14;98046.31;;;9.42;67.38
9969;BME280;5025;48.890;9.278;2023-03-13T03:16:40;98057.91;;;9.43;67.57
9969;BME280;5025;48.890;9.278;2023-03-13T03:19:05;98063.06;;;9.44;67.67
9969;BME280;5025;48.890;9.278;2023-03-13T03:21:32;98061.41;;;9.43;67.83
9969;BME280;5025;48.890;9.278;2023-03-13T03:23:58;98054.41;;;9.42;67.90
9969;BME280;5025;48.890;9.278;2023-03-13T03:26:23;98041.97;;;9.41;67.89
9969;BME280;5025;48.890;9.278;2023-03-13T03:28:48;98038.94;;;9.38;68.44
9969;BME280;5025;48.890;9.278;2023-03-13T03:31:14;98044.34;;;9.38;68.50
9969;BME280;5025;48.890;9.278;2023-03-13T03:33:41;98046.19;;;9.37;68.73
9969;BME280;5025;48.890;9.278;2023-03-13T03:36:09;98053.94;;;9.33;68.50
9969;BME280;5025;48.890;9.278;2023-03-13T03:38:35;98051.47;;;9.32;68.77
9969;BME280;5025;48.890;9.278;2023-03-13T03:41:01;98046.81;;;9.27;69.13
9969;BME280;5025;48.890;9.278;2023-03-13T03:43:27;98041.91;;;9.24;69.38
9969;BME280;5025;48.890;9.278;2023-03-13T03:45:52;98037.00;;;9.21;69.43
9969;BME280;5025;48.890;9.278;2023-03-13T03:48:17;98036.19;;;9.21;69.67
9969;BME280;5025;48.890;9.278;2023-03-13T03:50:43;98038.31;;;9.19;70.05
9969;BME280;5025;48.890;9.278;2023-03-13T03:53:09;98027.75;;;9.17;70.21
9969;BME280;5025;48.890;9.278;2023-03-13T03:55:34;98030.47;;;9.17;70.43
9969;BME280;5025;48.890;9.278;2023-03-13T03:58:00;98038.31;;;9.19;70.42
9969;BME280;5025;48.890;9.278;2023-03-13T04:00:25;98026.94;;;9.17;70.62
9969;BME280;5025;48.890;9.278;2023-03-13T04:02:52;98033.97;;;9.18;70.81
9969;BME280;5025;48.890;9.278;2023-03-13T04:05:17;98026.69;;;9.18;70.87
9969;BME280;5025;48.890;9.278;2023-03-13T04:07:42;98022.13;;;9.19;70.63
9969;BME280;5025;48.890;9.278;2023-03-13T04:10:08;98023.75;;;9.20;70.78
9969;BME280;5025;48.890;9.278;2023-03-13T04:12:34;98019.44;;;9.19;70.90
9969;BME280;5025;48.890;9.278;2023-03-13T04:14:59;98008.66;;;9.19;71.11
9969;BME280;5025;48.890;9.278;2023-03-13T04:17:24;98009.81;;;9.23;71.15
9969;BME280;5025;48.890;9.278;2023-03-13T04:19:50;98007.94;;;9.23;71.29
9969;BME280;5025;48.890;9.278;2023-03-13T04:22:15;98005.00;;;9.25;71.33
9969;BME280;5025;48.890;9.278;2023-03-13T04:24:40;98004.50;;;9.28;71.33
9969;BME280;5025;48.890;9.278;2023-03-13T04:27:06;97994.66;;;9.33;71.71
9969;BME280;5025;48.890;9.278;2023-03-13T04:29:32;97993.38;;;9.36;71.88
9969;BME280;5025;48.890;9.278;2023-03-13T04:31:57;97984.56;;;9.41;71.87
9969;BME280;5025;48.890;9.278;2023-03-13T04:34:22;97988.88;;;9.42;72.31
9969;BME280;5025;48.890;9.278;2023-03-13T04:36:48;97973.88;;;9.46;72.46
9969;BME280;5025;48.890;9.278;2023-03-13T04:39:16;97983.00;;;9.45;72.84
9969;BME280;5025;48.890;9.278;2023-03-13T04:41:41;97985.47;;;9.46;73.41
9969;BME280;5025;48.890;9.278;2023-03-13T04:44:06;97997.88;;;9.47;73.63
9969;BME280;5025;48.890;9.278;2023-03-13T04:46:32;97984.41;;;9.47;74.02
9969;BME280;5025;48.890;9.278;2023-03-13T04:48:57;97993.31;;;9.48;74.64
9969;BME280;5025;48.890;9.278;2023-03-13T04:51:22;97997.06;;;9.47;75.39
9969;BME280;5025;48.890;9.278;2023-03-13T04:53:48;97984.50;;;9.52;76.45
9969;BME280;5025;48.890;9.278;2023-03-13T04:56:21;97983.41;;;9.65;76.96
9969;BME280;5025;48.890;9.278;2023-03-13T04:58:46;97985.44;;;9.75;78.30
9969;BME280;5025;48.890;9.278;2023-03-13T05:01:12;97990.19;;;9.85;79.02
9969;BME280;5025;48.890;9.278;2023-03-13T05:03:37;97990.13;;;9.97;80.14
9969;BME280;5025;48.890;9.278;2023-03-13T05:06:02;97976.72;;;10.19;81.21
9969;BME280;5025;48.890;9.278;2023-03-13T05:08:28;97988.63;;;10.35;80.77
9969;BME280;5025;48.890;9.278;2023-03-13T05:10:53;97986.94;;;10.51;81.45
9969;BME280;5025;48.890;9.278;2023-03-13T05:13:18;97987.31;;;10.59;81.24
9969;BME280;5025;48.890;9.278;2023-03-13T05:15:43;97970.47;;;10.69;81.34
9969;BME280;5025;48.890;9.278;2023-03-13T05:18:09;97971.34;;;10.75;80.87
9969;BME280;5025;48.890;9.278;2023-03-13T05:20:34;97974.03;;;10.75;80.84
9969;BME280;5025;48.890;9.278;2023-03-13T05:22:59;97978.44;;;10.81;80.87
9969;BME280;5025;48.890;9.278;2023-03-13T05:25:25;97967.63;;;10.81;81.04
9969;BME280;5025;48.890;9.278;2023-03-13T05:27:50;97973.69;;;10.88;80.62
9969;BME280;5025;48.890;9.278;2023-03-13T05:30:15;97981.53;;;10.90;80.29
9969;BME280;5025;48.890;9.278;2023-03-13T05:32:40;97974.22;;;10.90;80.41
9969;BME280;5025;48.890;9.278;2023-03-13T05:35:06;97977.28;;;10.94;80.67
9969;BME280;5025;48.890;9.278;2023-03-13T05:37:31;97965.63;;;10.93;80.48
9969;BME280;5025;48.890;9.278;2023-03-13T05:39:59;97970.22;;;10.93;80.35
9969;BME280;5025;48.890;9.278;2023-03-13T05:42:24;97963.25;;;10.97;80.21
9969;BME280;5025;48.890;9.278;2023-03-13T05:44:50;97968.16;;;11.00;80.09
9969;BME280;5025;48.890;9.278;2023-03-13T05:47:16;97960.91;;;11.06;79.84
9969;BME280;5025;48.890;9.278;2023-03-13T05:49:42;97965.56;;;11.10;79.68
9969;BME280;5025;48.890;9.278;2023-03-13T05:52:08;97968.25;;;11.10;79.39
9969;BME280;5025;48.890;9.278;2023-03-13T05:54:33;97965.81;;;11.09;79.78
9969;BME280;5025;48.890;9.278;2023-03-13T05:56:58;97962.06;;;11.10;79.56
9969;BME280;5025;48.890;9.278;2023-03-13T05:59:23;97955.09;;;11.14;79.48
9969;BME280;5025;48.890;9.278;2023-03-13T06:01:49;97963.69;;;11.11;79.62
9969;BME280;5025;48.890;9.278;2023-03-13T06:04:14;97958.03;;;11.12;79.44
9969;BME280;5025;48.890;9.278;2023-03-13T06:06:39;97955.38;;;11.18;79.20
9969;BME280;5025;48.890;9.278;2023-03-13T06:09:05;97956.19;;;11.18;79.02
9969;BME280;5025;48.890;9.278;2023-03-13T06:11:30;97961.59;;;11.18;79.11
9969;BME280;5025;48.890;9.278;2023-03-13T06:13:55;97967.00;;;11.18;79.02
9969;BME280;5025;48.890;9.278;2023-03-13T06:16:21;97957.84;;;11.19;78.91
9969;BME280;5025;48.890;9.278;2023-03-13T06:18:46;97961.09;;;11.21;78.89
9969;BME280;5025;48.890;9.278;2023-03-13T06:21:12;97964.56;;;11.17;79.04
9969;BME280;5025;48.890;9.278;2023-03-13T06:23:38;97967.34;;;11.22;79.02
9969;BME280;5025;48.890;9.278;2023-03-13T06:26:04;97958.13;;;11.23;79.02
9969;BME280;5025;48.890;9.278;2023-03-13T06:28:29;97959.78;;;11.24;79.30
9969;BME280;5025;48.890;9.278;2023-03-13T06:31:00;97950.91;;;11.28;79.26
9969;BME280;5025;48.890;9.278;2023-03-13T06:33:25;97952.03;;;11.33;78.97
9969;BME280;5025;48.890;9.278;2023-03-13T06:35:50;97951.03;;;11.39;78.75
9969;BME280;5025;48.890;9.278;2023-03-13T06:38:16;97946.22;;;11.46;78.46
9969;BME280;5025;48.890;9.278;2023-03-13T06:40:41;97945.69;;;11.49;78.25
9969;BME280;5025;48.890;9.278;2023-03-13T06:43:06;97946.53;;;11.50;78.28
9969;BME280;5025;48.890;9.278;2023-03-13T06:45:34;97945.19;;;11.52;78.22
9969;BME280;5025;48.890;9.278;2023-03-13T06:48:00;97949.03;;;11.56;77.86
9969;BME280;5025;48.890;9.278;2023-03-13T06:50:25;97954.69;;;11.55;78.14
9969;BME280;5025;48.890;9.278;2023-03-13T06:52:50;97954.16;;;11.53;78.11
9969;BME280;5025;48.890;9.278;2023-03-13T06:55:17;97956.94;;;11.63;78.05
9969;BME280;5025;48.890;9.278;2023-03-13T06:57:42;97973.41;;;11.61;78.14
9969;BME280;5025;48.890;9.278;2023-03-13T07:00:09;97973.16;;;11.63;78.54
9969;BME280;5025;48.890;9.278;2023-03-13T07:02:36;97984.28;;;11.66;78.28
9969;BME280;5025;48.890;9.278;2023-03-13T07:05:01;97978.63;;;11.68;78.42
9969;BME280;5025;48.890;9.278;2023-03-13T07:07:30;97970.78;;;11.66;78.56
9969;BME280;5025;48.890;9.278;2023-03-13T07:09:57;97983.28;;;11.73;78.30
9969;BME280;5025;48.890;9.278;2023-03-13T07:12:22;97962.19;;;11.75;78.15
9969;BME280;5025;48.890;9.278;2023-03-13T07:14:47;97974.38;;;11.77;78.28
9969;BME280;5025;48.890;9.278;2023-03-13T07:17:13;97988.97;;;11.76;78.40
9969;BME280;5025;48.890;9.278;2023-03-13T07:19:38;97985.75;;;11.79;78.29
9969;BME280;5025;48.890;9.278;2023-03-13T07:22:03;97996.56;;;11.79;78.24
9969;BME280;5025;48.890;9.278;2023-03-13T07:24:28;97977.97;;;11.88;77.95
9969;BME280;5025;48.890;9.278;2023-03-13T07:26:54;97979.88;;;11.88;77.96
9969;BME280;5025;48.890;9.278;2023-03-13T07:29:19;97990.16;;;11.86;77.87
9969;BME280;5025;48.890;9.278;2023-03-13T07:31:44;97972.00;;;11.86;78.18
9969;BME280;5025;48.890;9.278;2023-03-13T07:34:09;97985.84;;;11.90;78.02
9969;BME280;5025;48.890;9.278;2023-03-13T07:36:35;97972.31;;;11.90;78.02
9969;BME280;5025;48.890;9.278;2023-03-13T07:39:00;97959.63;;;11.90;78.20
9969;BME280;5025;48.890;9.278;2023-03-13T07:41:26;97952.63;;;11.94;78.00
9969;BME280;5025;48.890;9.278;2023-03-13T07:43:51;97954.78;;;11.92;77.89
9969;BME280;5025;48.890;9.278;2023-03-13T07:46:18;97947.22;;;11.94;78.04
9969;BME280;5025;48.890;9.278;2023-03-13T07:48:44;97946.66;;;11.92;78.05
9969;BME280;5025;48.890;9.278;2023-03-13T07:51:21;97946.41;;;11.94;77.92
9969;BME280;5025;48.890;9.278;2023-03-13T07:53:48;97942.94;;;11.98;77.87
9969;BME280;5025;48.890;9.278;2023-03-13T07:56:17;97952.09;;;11.97;77.99
9969;BME280;5025;48.890;9.278;2023-03-13T07:58:43;97942.38;;;11.96;78.08
9969;BME280;5025;48.890;9.278;2023-03-13T08:03:34;97934.28;;;12.01;77.95
9969;BME280;5025;48.890;9.278;2023-03-13T08:06:01;97932.91;;;11.99;78.25
9969;BME280;5025;48.890;9.278;2023-03-13T08:08:28;97928.63;;;12.03;77.98
9969;BME280;5025;48.890;9.278;2023-03-13T08:11:14;97931.59;;;12.01;78.21
9969;BME280;5025;48.890;9.278;2023-03-13T08:13:40;97926.78;;;12.09;78.09
9969;BME280;5025;48.890;9.278;2023-03-13T08:18:35;97904.59;;;12.12;78.48
9969;BME280;5025;48.890;9.278;2023-03-13T08:21:02;97882.97;;;12.12;78.67
9969;BME280;5025;48.890;9.278;2023-03-13T08:23:28;97883.25;;;12.20;78.39
9969;BME280;5025;48.890;9.278;2023-03-13T08:25:53;97888.19;;;12.29;78.31
9969;BME280;5025;48.890;9.278;2023-03-13T08:28:18;97899.84;;;12.34;78.16
9969;BME280;5025;48.890;9.278;2023-03-13T08:30:43;97895.00;;;12.36;78.15
9969;BME280;5025;48.890;9.278;2023-03-13T08:33:09;97901.53;;;12.41;78.09
9969;BME280;5025;48.890;9.278;2023-03-13T08:35:34;97891.00;;;12.44;77.82
9969;BME280;5025;48.890;9.278;2023-03-13T08:38:00;97894.53;;;12.50;77.68
9969;BME280;5025;48.890;9.278;2023-03-13T08:40:26;97893.72;;;12.49;77.81
9969;BME280;5025;48.890;9.278;2023-03-13T08:42:53;97897.00;;;12.57;77.66
9969;BME280;5025;48.890;9.278;2023-03-13T08:45:18;97904.91;;;12.68;76.99
9969;BME280;5025;48.890;9.278;2023-03-13T08:47:43;97906.28;;;12.71;76.84
9969;BME280;5025;48.890;9.278;2023-03-13T08:50:09;97904.94;;;12.73;76.77
9969;BME280;5025;48.890;9.278;2023-03-13T08:52:34;97909.00;;;12.76;76.74
9969;BME280;5025;48.890;9.278;2023-03-13T08:54:59;97899.00;;;12.82;76.51
9969;BME280;5025;48.890;9.278;2023-03-13T08:57:25;97898.47;;;12.85;76.12
9969;BME280;5025;48.890;9.278;2023-03-13T08:59:50;97895.25;;;12.88;76.08
9969;BME280;5025;48.890;9.278;2023-03-13T09:02:15;97892.00;;;12.96;75.94
9969;BME280;5025;48.890;9.278;2023-03-13T09:04:45;97903.41;;;12.98;75.41
9969;BME280;5025;48.890;9.278;2023-03-13T09:07:11;97898.53;;;13.00;75.32
9969;BME280;5025;48.890;9.278;2023-03-13T09:09:36;97892.84;;;13.07;75.20
9969;BME280;5025;48.890;9.278;2023-03-13T09:12:02;97900.72;;;13.08;74.72
9969;BME280;5025;48.890;9.278;2023-03-13T09:14:27;97907.78;;;13.04;74.42
9969;BME280;5025;48.890;9.278;2023-03-13T09:16:53;97896.94;;;13.09;73.83
9969;BME280;5025;48.890;9.278;2023-03-13T09:19:18;97895.31;;;13.14;73.78
9969;BME280;5025;48.890;9.278;2023-03-13T09:21:43;97901.81;;;13.23;73.33
9969;BME280;5025;48.890;9.278;2023-03-13T09:24:10;97892.09;;;13.27;73.35
9969;BME280;5025;48.890;9.278;2023-03-13T09:26:35;97898.03;;;13.24;72.77
9969;BME280;5025;48.890;9.278;2023-03-13T09:29:01;97898.59;;;13.21;72.89
9969;BME280;5025;48.890;9.278;2023-03-13T09:31:28;97889.91;;;13.29;72.64
9969;BME280;5025;48.890;9.278;2023-03-13T09:33:54;97891.31;;;13.37;72.13
9969;BME280;5025;48.890;9.278;2023-03-13T09:36:20;97901.91;;;13.43;71.60
9969;BME280;5025;48.890;9.278;2023-03-13T09:38:46;97900.81;;;13.39;71.45
9969;BME280;5025;48.890;9.278;2023-03-13T09:44:02;97904.66;;;13.59;70.82
9969;BME280;5025;48.890;9.278;2023-03-13T09:46:38;97911.44;;;13.67;70.70
9969;BME280;5025;48.890;9.278;2023-03-13T09:49:35;97910.06;;;13.64;70.58
9969;BME280;5025;48.890;9.278;2023-03-13T09:52:17;97907.38;;;13.59;70.44
9969;BME280;5025;48.890;9.278;2023-03-13T09:57:24;97891.34;;;13.78;70.07
9969;BME280;5025;48.890;9.278;2023-03-13T09:59:56;97874.25;;;13.83;69.72
9969;BME280;5025;48.890;9.278;2023-03-13T10:02:31;97884.28;;;13.92;69.63
9969;BME280;5025;48.890;9.278;2023-03-13T10:05:14;97873.69;;;14.01;67.72
9969;BME280;5025;48.890;9.278;2023-03-13T10:07:43;97862.84;;;14.11;67.26
9969;BME280;5025;48.890;9.278;2023-03-13T10:10:26;97856.28;;;14.23;67.09
9969;BME280;5025;48.890;9.278;2023-03-13T10:12:56;97905.16;;;14.28;66.14
9969;BME280;5025;48.890;9.278;2023-03-13T10:15:36;97845.94;;;14.35;66.26
9969;BME280;5025;48.890;9.278;2023-03-13T10:18:30;97852.38;;;14.49;66.08
9969;BME280;5025;48.890;9.278;2023-03-13T10:20:59;97863.22;;;14.55;65.76
9969;BME280;5025;48.890;9.278;2023-03-13T10:23:37;97845.28;;;14.59;65.43
9969;BME280;5025;48.890;9.278;2023-03-13T10:26:03;97846.94;;;14.60;64.59
9969;BME280;5025;48.890;9.278;2023-03-13T10:28:28;97846.38;;;14.68;64.40
9969;BME280;5025;48.890;9.278;2023-03-13T10:31:04;97837.06;;;14.79;64.30
9969;BME280;5025;48.890;9.278;2023-03-13T10:33:33;97833.78;;;14.82;64.26
9969;BME280;5025;48.890;9.278;2023-03-13T10:36:06;97841.91;;;14.93;63.89
9969;BME280;5025;48.890;9.278;2023-03-13T10:38:52;97843.50;;;14.99;63.26
9969;BME280;5025;48.890;9.278;2023-03-13T10:43:57;97831.91;;;15.22;62.16
9969;BME280;5025;48.890;9.278;2023-03-13T10:46:24;97848.19;;;15.33;62.24
9969;BME280;5025;48.890;9.278;2023-03-13T10:48:53;97816.91;;;15.30;61.38
9969;BME280;5025;48.890;9.278;2023-03-13T10:51:24;97831.63;;;15.29;60.65
9969;BME280;5025;48.890;9.278;2023-03-13T10:53:54;97815.31;;;15.29;61.21
9969;BME280;5025;48.890;9.278;2023-03-13T10:56:28;97823.66;;;15.38;61.32
9969;BME280;5025;48.890;9.278;2023-03-13T10:58:55;97817.69;;;15.36;61.48
9969;BME280;5025;48.890;9.278;2023-03-13T11:01:26;97804.59;;;15.38;60.92
9969;BME280;5025;48.890;9.278;2023-03-13T11:03:58;97801.25;;;15.51;61.35
9969;BME280;5025;48.890;9.278;2023-03-13T11:06:26;97785.34;;;15.64;60.63
9969;BME280;5025;48.890;9.278;2023-03-13T11:09:10;97792.31;;;15.80;58.96
9969;BME280;5025;48.890;9.278;2023-03-13T11:14:16;97814.00;;;16.15;59.47
9969;BME280;5025;48.890;9.278;2023-03-13T11:24:46;97781.94;;;16.06;58.60
9969;BME280;5025;48.890;9.278;2023-03-13T11:27:23;97771.00;;;16.11;58.37
9969;BME280;5025;48.890;9.278;2023-03-13T11:32:46;97769.75;;;16.04;57.23
9969;BME280;5025;48.890;9.278;2023-03-13T11:35:34;97744.00;;;16.15;57.65
9969;BME280;5025;48.890;9.278;2023-03-13T11:38:26;97739.84;;;16.42;57.09
9969;BME280;5025;48.890;9.278;2023-03-13T11:57:31;97672.53;;;17.60;52.77
9969;BME280;5025;48.890;9.278;2023-03-13T12:00:19;97659.81;;;17.69;52.45
9969;BME280;5025;48.890;9.278;2023-03-13T12:02:56;97660.13;;;17.68;52.66
9969;BME280;5025;48.890;9.278;2023-03-13T12:05:36;97655.88;;;17.76;52.42
9969;BME280;5025;48.890;9.278;2023-03-13T12:08:06;97643.63;;;17.87;52.20
9969;BME280;5025;48.890;9.278;2023-03-13T12:10:45;97640.47;;;17.80;51.23
9969;BME280;5025;48.890;9.278;2023-03-13T12:16:01;97620.56;;;17.93;52.00
9969;BME280;5025;48.890;9.278;2023-03-13T12:18:34;97636.25;;;18.01;52.14
9969;BME280;5025;48.890;9.278;2023-03-13T12:21:04;97624.81;;;17.99;51.26
9969;BME280;5025;48.890;9.278;2023-03-13T12:26:17;97619.09;;;18.23;50.43
9969;BME280;5025;48.890;9.278;2023-03-13T12:28:53;97576.97;;;18.24;50.66
9969;BME280;5025;48.890;9.278;2023-03-13T12:31:26;97591.44;;;18.39;50.36
9969;BME280;5025;48.890;9.278;2023-03-13T12:33:59;97571.84;;;18.45;49.99
9969;BME280;5025;48.890;9.278;2023-03-13T12:45:17;97545.38;;;18.55;48.83
9969;BME280;5025;48.890;9.278;2023-03-13T12:56:26;97511.19;;;18.89;47.95
9969;BME280;5025;48.890;9.278;2023-03-13T12:59:18;97504.31;;;19.00;47.68
9969;BME280;5025;48.890;9.278;2023-03-13T13:01:50;97474.91;;;19.14;47.30
9969;BME280;5025;48.890;9.278;2023-03-13T13:04:20;97472.66;;;19.16;46.82
9969;BME280;5025;48.890;9.278;2023-03-13T13:06:53;97476.03;;;19.22;46.00
9969;BME280;5025;48.890;9.278;2023-03-13T13:11:51;97459.78;;;19.17;46.79
9969;BME280;5025;48.890;9.278;2023-03-13T13:16:44;97440.16;;;19.15;46.68
9969;BME280;5025;48.890;9.278;2023-03-13T13:25:46;97427.97;;;19.47;46.49
9969;BME280;5025;48.890;9.278;2023-03-13T13:27:47;97411.53;;;19.56;46.02
9969;BME280;5025;48.890;9.278;2023-03-13T13:32:52;97407.53;;;19.53;46.09
9969;BME280;5025;48.890;9.278;2023-03-13T13:35:27;97389.47;;;19.61;45.63
9969;BME280;5025;48.890;9.278;2023-03-13T13:43:40;97383.19;;;19.43;44.82
9969;BME280;5025;48.890;9.278;2023-03-13T13:46:25;97364.69;;;19.49;44.44
9969;BME280;5025;48.890;9.278;2023-03-13T13:49:13;97370.94;;;19.67;44.69
9969;BME280;5025;48.890;9.278;2023-03-13T13:51:39;97369.50;;;19.78;44.74
9969;BME280;5025;48.890;9.278;2023-03-13T13:56:39;97337.09;;;19.98;43.07
9969;BME280;5025;48.890;9.278;2023-03-13T14:01:50;97333.16;;;20.16;42.93
9969;BME280;5025;48.890;9.278;2023-03-13T14:05:01;97328.16;;;20.18;43.26
9969;BME280;5025;48.890;9.278;2023-03-13T14:07:53;97333.03;;;20.04;42.33
9969;BME280;5025;48.890;9.278;2023-03-13T14:10:39;97320.13;;;20.13;42.74
9969;BME280;5025;48.890;9.278;2023-03-13T14:13:19;97322.34;;;20.20;43.31
9969;BME280;5025;48.890;9.278;2023-03-13T14:15:46;97310.84;;;20.35;43.19
9969;BME280;5025;48.890;9.278;2023-03-13T14:18:23;97309.13;;;20.60;43.10
9969;BME280;5025;48.890;9.278;2023-03-13T14:20:59;97295.66;;;20.76;43.12
9969;BME280;5025;48.890;9.278;2023-03-13T14:23:36;97291.03;;;20.59;43.26
9969;BME280;5025;48.890;9.278;2023-03-13T14:26:14;97285.69;;;20.72;43.65
9969;BME280;5025;48.890;9.278;2023-03-13T14:28:44;97284.34;;;20.78;42.45
9969;BME280;5025;48.890;9.278;2023-03-13T14:31:23;97268.97;;;21.07;42.45
9969;BME280;5025;48.890;9.278;2023-03-13T14:33:49;97269.91;;;21.11;42.46
9969;BME280;5025;48.890;9.278;2023-03-13T14:36:14;97260.06;;;21.10;42.15
9969;BME280;5025;48.890;9.278;2023-03-13T14:38:53;97250.31;;;21.55;40.65
9969;BME280;5025;48.890;9.278;2023-03-13T14:41:35;97250.41;;;22.04;39.66
9969;BME280;5025;48.890;9.278;2023-03-13T14:44:04;97235.69;;;22.33;38.74
9969;BME280;5025;48.890;9.278;2023-03-13T14:46:32;97237.94;;;22.81;37.89
9969;BME280;5025;48.890;9.278;2023-03-13T14:49:17;97226.31;;;23.28;37.39
9969;BME280;5025;48.890;9.278;2023-03-13T14:51:45;97217.81;;;23.33;36.63
9969;BME280;5025;48.890;9.278;2023-03-13T14:54:34;97204.44;;;23.48;36.76
9969;BME280;5025;48.890;9.278;2023-03-13T14:59:34;97186.88;;;24.00;34.63
9969;BME280;5025;48.890;9.278;2023-03-13T15:02:18;97179.28;;;24.29;33.31
9969;BME280;5025;48.890;9.278;2023-03-13T15:04:47;97179.75;;;24.31;32.92
9969;BME280;5025;48.890;9.278;2023-03-13T15:07:12;97168.75;;;23.99;33.70
9969;BME280;5025;48.890;9.278;2023-03-13T15:09:42;97166.69;;;23.96;34.05
9969;BME280;5025;48.890;9.278;2023-03-13T15:12:16;97170.34;;;24.00;33.70
9969;BME280;5025;48.890;9.278;2023-03-13T15:14:44;97178.69;;;24.04;32.90